sensor_id;sensor_type;location;lat;lon;timestamp;pressure;altitude;pressure_sealevel;temperature;humidity
74708;BME280;63360;50.104;8.074;2022-10-18T00:02:05;98080.56;;;15.09;100.00
74708;BME280;63360;50.104;8.074;2022-10-18T00:04:31;98075.94;;;15.15;100.00
74708;BME280;63360;50.104;8.074;2022-10-18T00:06:58;98077.19;;;15.09;100.00
74708;BME280;63360;50.104;8.074;2022-10-18T00:09:24;98072.59;;;15.06;100.00
74708;BME280;63360;50.104;8.074;2022-10-18T00:11:53;98067.97;;;15.03;100.00
74708;BME280;63360;50.104;8.074;2022-10-18T00:14:20;98071.81;;;15.05;100.00
74708;BME280;63360;50.104;8.074;2022-10-18T00:16:47;98067.03;;;14.99;100.00
74708;BME280;63360;50.104;8.074;2022-10-18T00:19:13;98078.28;;;15.08;100.00
74708;BME280;63360;50.104;8.074;2022-10-18T00:21:40;98068.41;;;15.05;100.00
74708;BME280;63360;50.104;8.074;2022-10-18T00:24:06;98064.38;;;15.16;100.00
74708;BME280;63360;50.104;8.074;2022-10-18T00:26:33;98085.66;;;15.14;100.00
74708;BME280;63360;50.104;8.074;2022-10-18T00:29:02;98078.56;;;15.06;100.00
74708;BME280;63360;50.104;8.074;2022-10-18T00:31:31;98074.56;;;15.09;100.00
74708;BME280;63360;50.104;8.074;2022-10-18T00:34:00;98077.34;;;15.12;100.00
74708;BME280;63360;50.104;8.074;2022-10-18T00:36:29;98079.66;;;15.14;100.00
74708;BME280;63360;50.104;8.074;2022-10-18T00:38:56;98067.78;;;15.16;100.00
74708;BME280;63360;50.104;8.074;2022-10-18T00:41:29;98071.91;;;15.26;100.00
74708;BME280;63360;50.104;8.074;2022-10-18T00:46:32;98046.47;;;15.27;100.00
74708;BME280;63360;50.104;8.074;2022-10-18T00:49:01;98064.06;;;15.26;100.00
74708;BME280;63360;50.104;8.074;2022-10-18T00:52:18;98047.88;;;15.15;100.00
74708;BME280;63360;50.104;8.074;2022-10-18T00:54:25;98054.34;;;15.18;100.00
74708;BME280;63360;50.104;8.074;2022-10-18T00:56:52;98056.69;;;15.11;100.00
74708;BME280;63360;50.104;8.074;2022-10-18T00:59:18;98070.69;;;15.15;100.00
74708;BME280;63360;50.104;8.074;2022-10-18T01:01:45;98079.50;;;15.19;100.00
74708;BME280;63360;50.104;8.074;2022-10-18T01:04:13;98065.28;;;15.20;100.00
74708;BME280;63360;50.104;8.074;2022-10-18T01:09:43;98051.13;;;15.21;100.00
74708;BME280;63360;50.104;8.074;2022-10-18T01:12:41;98062.06;;;15.14;100.00
74708;BME280;63360;50.104;8.074;2022-10-18T01:15:27;98064.38;;;15.16;100.00
74708;BME280;63360;50.104;8.074;2022-10-18T01:18:13;98060.22;;;15.15;100.00
74708;BME280;63360;50.104;8.074;2022-10-18T01:21:08;98057.78;;;15.10;100.00
74708;BME280;63360;50.104;8.074;2022-10-18T01:32:20;98052.53;;;15.10;100.00
74708;BME280;63360;50.104;8.074;2022-10-18T01:34:49;98040.66;;;15.04;100.00
74708;BME280;63360;50.104;8.074;2022-10-18T01:37:19;98034.38;;;14.96;100.00
74708;BME280;63360;50.104;8.074;2022-10-18T01:39:47;98043.16;;;15.00;100.00
74708;BME280;63360;50.104;8.074;2022-10-18T01:42:17;98031.28;;;14.94;100.00
74708;BME280;63360;50.104;8.074;2022-10-18T01:44:46;98032.53;;;14.97;100.00
74708;BME280;63360;50.104;8.074;2022-10-18T01:47:14;98040.66;;;15.04;100.00
74708;BME280;63360;50.104;8.074;2022-10-18T01:49:40;98024.50;;;15.02;100.00
74708;BME280;63360;50.104;8.074;2022-10-18T01:52:11;98011.09;;;14.95;100.00
74708;BME280;63360;50.104;8.074;2022-10-18T01:54:41;98019.75;;;14.95;100.00
74708;BME280;63360;50.104;8.074;2022-10-18T01:57:56;98018.81;;;15.00;100.00
74708;BME280;63360;50.104;8.074;2022-10-18T02:00:36;98013.72;;;14.95;100.00
74708;BME280;63360;50.104;8.074;2022-10-18T02:05:40;98014.63;;;14.99;100.00
74708;BME280;63360;50.104;8.074;2022-10-18T02:08:16;98023.53;;;15.06;100.00
74708;BME280;63360;50.104;8.074;2022-10-18T02:10:58;98036.03;;;15.09;100.00
74708;BME280;63360;50.104;8.074;2022-10-18T02:13:29;98020.19;;;14.97;100.00
74708;BME280;63360;50.104;8.074;2022-10-18T02:16:02;98013.84;;;14.98;100.00
74708;BME280;63360;50.104;8.074;2022-10-18T02:18:36;98025.13;;;14.99;100.00
74708;BME280;63360;50.104;8.074;2022-10-18T02:21:07;98043.28;;;15.04;100.00
74708;BME280;63360;50.104;8.074;2022-10-18T02:23:37;98052.66;;;15.22;100.00
74708;BME280;63360;50.104;8.074;2022-10-18T02:26:04;98092.25;;;15.29;100.00
74708;BME280;63360;50.104;8.074;2022-10-18T02:28:31;98101.34;;;15.32;100.00
74708;BME280;63360;50.104;8.074;2022-10-18T02:31:05;98106.63;;;15.14;100.00
74708;BME280;63360;50.104;8.074;2022-10-18T02:33:57;98094.16;;;15.11;100.00
74708;BME280;63360;50.104;8.074;2022-10-18T02:36:40;98085.69;;;14.97;100.00
74708;BME280;63360;50.104;8.074;2022-10-18T02:39:13;98073.69;;;14.79;100.00
74708;BME280;63360;50.104;8.074;2022-10-18T02:41:42;98085.25;;;14.78;100.00
74708;BME280;63360;50.104;8.074;2022-10-18T02:44:09;98089.84;;;14.73;100.00
74708;BME280;63360;50.104;8.074;2022-10-18T02:46:36;98062.59;;;14.74;100.00
74708;BME280;63360;50.104;8.074;2022-10-18T02:49:02;98062.91;;;14.72;100.00
74708;BME280;63360;50.104;8.074;2022-10-18T02:51:29;98059.97;;;14.65;100.00
74708;BME280;63360;50.104;8.074;2022-10-18T02:53:56;98051.97;;;14.62;100.00
74708;BME280;63360;50.104;8.074;2022-10-18T02:56:22;98041.66;;;14.56;100.00
74708;BME280;63360;50.104;8.074;2022-10-18T02:58:49;98039.34;;;14.55;100.00
74708;BME280;63360;50.104;8.074;2022-10-18T03:01:15;98032.88;;;14.52;100.00
74708;BME280;63360;50.104;8.074;2022-10-18T03:03:42;98026.72;;;14.48;100.00
74708;BME280;63360;50.104;8.074;2022-10-18T03:06:08;98026.56;;;14.45;100.00
74708;BME280;63360;50.104;8.074;2022-10-18T03:08:35;98027.50;;;14.49;100.00
74708;BME280;63360;50.104;8.074;2022-10-18T03:11:01;98017.00;;;14.40;100.00
74708;BME280;63360;50.104;8.074;2022-10-18T03:13:28;98018.56;;;14.41;100.00
74708;BME280;63360;50.104;8.074;2022-10-18T03:15:55;98016.72;;;14.42;100.00
74708;BME280;63360;50.104;8.074;2022-10-18T03:18:21;98008.09;;;14.41;100.00
74708;BME280;63360;50.104;8.074;2022-10-18T03:20:48;98010.56;;;14.46;100.00
74708;BME280;63360;50.104;8.074;2022-10-18T03:23:14;98007.00;;;14.42;100.00
74708;BME280;63360;50.104;8.074;2022-10-18T03:25:40;98012.41;;;14.46;100.00
74708;BME280;63360;50.104;8.074;2022-10-18T03:28:11;98016.56;;;14.47;100.00
74708;BME280;63360;50.104;8.074;2022-10-18T03:30:38;98015.78;;;14.46;100.00
74708;BME280;63360;50.104;8.074;2022-10-18T03:33:05;98023.97;;;14.45;100.00
74708;BME280;63360;50.104;8.074;2022-10-18T03:35:31;98016.09;;;14.36;100.00
74708;BME280;63360;50.104;8.074;2022-10-18T03:37:58;98028.09;;;14.46;100.00
74708;BME280;63360;50.104;8.074;2022-10-18T03:40:24;98043.34;;;14.44;100.00
74708;BME280;63360;50.104;8.074;2022-10-18T03:42:51;98027.63;;;14.35;100.00
74708;BME280;63360;50.104;8.074;2022-10-18T03:45:17;98034.09;;;14.38;100.00
74708;BME280;63360;50.104;8.074;2022-10-18T03:47:43;98034.25;;;14.41;100.00
74708;BME280;63360;50.104;8.074;2022-10-18T03:50:10;98035.50;;;14.44;100.00
74708;BME280;63360;50.104;8.074;2022-10-18T03:52:36;98045.19;;;14.43;100.00
74708;BME280;63360;50.104;8.074;2022-10-18T03:55:03;98045.03;;;14.40;100.00
74708;BME280;63360;50.104;8.074;2022-10-18T03:57:29;98053.97;;;14.39;100.00
74708;BME280;63360;50.104;8.074;2022-10-18T03:59:56;98047.97;;;14.38;100.00
74708;BME280;63360;50.104;8.074;2022-10-18T04:02:22;98054.75;;;14.39;100.00
74708;BME280;63360;50.104;8.074;2022-10-18T04:04:48;98049.19;;;14.32;100.00
74708;BME280;63360;50.104;8.074;2022-10-18T04:07:15;98045.97;;;14.35;100.00
74708;BME280;63360;50.104;8.074;2022-10-18T04:09:42;98043.78;;;14.29;100.00
74708;BME280;63360;50.104;8.074;2022-10-18T04:12:08;98048.25;;;14.28;100.00
74708;BME280;63360;50.104;8.074;2022-10-18T04:14:34;98046.09;;;14.30;100.00
74708;BME280;63360;50.104;8.074;2022-10-18T04:17:01;98056.75;;;14.34;100.00
74708;BME280;63360;50.104;8.074;2022-10-18T04:19:27;98059.38;;;14.34;100.00
74708;BME280;63360;50.104;8.074;2022-10-18T04:21:54;98052.91;;;14.31;100.00
74708;BME280;63360;50.104;8.074;2022-10-18T04:24:20;98061.38;;;14.37;100.00
74708;BME280;63360;50.104;8.074;2022-10-18T04:26:47;98046.22;;;14.25;100.00
74708;BME280;63360;50.104;8.074;2022-10-18T04:29:13;98062.84;;;14.29;100.00
74708;BME280;63360;50.104;8.074;2022-10-18T04:31:40;98061.97;;;14.34;100.00
74708;BME280;63360;50.104;8.074;2022-10-18T04:34:06;98065.06;;;14.36;100.00
74708;BME280;63360;50.104;8.074;2022-10-18T04:36:32;98063.81;;;14.33;100.00
74708;BME280;63360;50.104;8.074;2022-10-18T04:38:59;98065.38;;;14.34;100.00
74708;BME280;63360;50.104;8.074;2022-10-18T04:41:25;98047.47;;;14.28;100.00
74708;BME280;63360;50.104;8.074;2022-10-18T04:43:51;98068.00;;;14.34;100.00
74708;BME280;63360;50.104;8.074;2022-10-18T04:46:18;98055.31;;;14.28;100.00
74708;BME280;63360;50.104;8.074;2022-10-18T04:48:44;98052.69;;;14.28;100.00
74708;BME280;63360;50.104;8.074;2022-10-18T04:51:10;98061.22;;;14.33;100.00
74708;BME280;63360;50.104;8.074;2022-10-18T04:53:37;98044.53;;;14.29;100.00
74708;BME280;63360;50.104;8.074;2022-10-18T04:56:03;98052.91;;;14.31;100.00
74708;BME280;63360;50.104;8.074;2022-10-18T04:58:31;98037.16;;;14.23;100.00
74708;BME280;63360;50.104;8.074;2022-10-18T05:00:57;98046.53;;;14.24;100.00
74708;BME280;63360;50.104;8.074;2022-10-18T05:03:24;98051.47;;;14.25;100.00
74708;BME280;63360;50.104;8.074;2022-10-18T05:05:50;98034.22;;;14.16;100.00
74708;BME280;63360;50.104;8.074;2022-10-18T05:08:33;98055.63;;;14.26;100.00
74708;BME280;63360;50.104;8.074;2022-10-18T05:11:01;98057.16;;;14.27;100.00
74708;BME280;63360;50.104;8.074;2022-10-18T05:13:28;98051.94;;;14.27;100.00
74708;BME280;63360;50.104;8.074;2022-10-18T05:15:55;98035.13;;;14.20;100.00
74708;BME280;63360;50.104;8.074;2022-10-18T05:18:21;98043.28;;;14.27;100.00
74708;BME280;63360;50.104;8.074;2022-10-18T05:20:48;98046.22;;;14.25;100.00
74708;BME280;63360;50.104;8.074;2022-10-18T05:23:14;98036.38;;;14.22;100.00
74708;BME280;63360;50.104;8.074;2022-10-18T05:25:41;98047.91;;;14.30;100.00
74708;BME280;63360;50.104;8.074;2022-10-18T05:28:08;98044.69;;;14.24;100.00
74708;BME280;63360;50.104;8.074;2022-10-18T05:30:54;98053.94;;;14.30;100.00
74708;BME280;63360;50.104;8.074;2022-10-18T05:33:21;98061.00;;;14.30;100.00
74708;BME280;63360;50.104;8.074;2022-10-18T05:35:47;98043.31;;;14.18;100.00
74708;BME280;63360;50.104;8.074;2022-10-18T05:38:14;98061.50;;;14.32;100.00
74708;BME280;63360;50.104;8.074;2022-10-18T05:40:40;98061.38;;;14.37;100.00
74708;BME280;63360;50.104;8.074;2022-10-18T05:43:06;98068.44;;;14.36;100.00
74708;BME280;63360;50.104;8.074;2022-10-18T05:45:33;98053.75;;;14.27;100.00
74708;BME280;63360;50.104;8.074;2022-10-18T05:47:59;98062.28;;;14.32;100.00
74708;BME280;63360;50.104;8.074;2022-10-18T05:50:26;98064.41;;;14.30;100.00
74708;BME280;63360;50.104;8.074;2022-10-18T05:52:56;98062.56;;;14.31;100.00
74708;BME280;63360;50.104;8.074;2022-10-18T05:55:43;98054.09;;;14.25;100.00
74708;BME280;63360;50.104;8.074;2022-10-18T05:58:09;98064.41;;;14.30;100.00
74708;BME280;63360;50.104;8.074;2022-10-18T06:00:35;98056.38;;;14.27;100.00
74708;BME280;63360;50.104;8.074;2022-10-18T06:03:02;98060.75;;;14.31;100.00
74708;BME280;63360;50.104;8.074;2022-10-18T06:05:28;98061.00;;;14.30;100.00
74708;BME280;63360;50.104;8.074;2022-10-18T06:07:55;98061.00;;;14.30;100.00
74708;BME280;63360;50.104;8.074;2022-10-18T06:10:21;98065.00;;;14.27;100.00
74708;BME280;63360;50.104;8.074;2022-10-18T06:12:48;98067.78;;;14.31;100.00
74708;BME280;63360;50.104;8.074;2022-10-18T06:15:14;98068.59;;;14.31;100.00
74708;BME280;63360;50.104;8.074;2022-10-18T06:17:41;98061.94;;;14.25;100.00
74708;BME280;63360;50.104;8.074;2022-10-18T06:20:07;98069.78;;;14.25;100.00
74708;BME280;63360;50.104;8.074;2022-10-18T06:22:34;98069.19;;;14.28;100.00
74708;BME280;63360;50.104;8.074;2022-10-18T06:25:00;98080.59;;;14.32;100.00
74708;BME280;63360;50.104;8.074;2022-10-18T06:27:27;98083.03;;;14.29;100.00
74708;BME280;63360;50.104;8.074;2022-10-18T06:29:53;98079.94;;;14.27;100.00
74708;BME280;63360;50.104;8.074;2022-10-18T06:32:19;98078.41;;;14.26;100.00
74708;BME280;63360;50.104;8.074;2022-10-18T06:34:46;98089.03;;;14.29;100.00
74708;BME280;63360;50.104;8.074;2022-10-18T06:37:12;98068.09;;;14.21;100.00
74708;BME280;63360;50.104;8.074;2022-10-18T06:39:39;98063.31;;;14.14;100.00
74708;BME280;63360;50.104;8.074;2022-10-18T06:42:06;98080.84;;;14.22;100.00
74708;BME280;63360;50.104;8.074;2022-10-18T06:44:32;98079.19;;;14.26;100.00
74708;BME280;63360;50.104;8.074;2022-10-18T06:46:59;98076.69;;;14.21;100.00
74708;BME280;63360;50.104;8.074;2022-10-18T06:49:25;98080.09;;;14.22;100.00
74708;BME280;63360;50.104;8.074;2022-10-18T06:51:52;98091.97;;;14.28;100.00
74708;BME280;63360;50.104;8.074;2022-10-18T06:54:18;98086.72;;;14.28;100.00
74708;BME280;63360;50.104;8.074;2022-10-18T06:56:45;98097.19;;;14.28;100.00
74708;BME280;63360;50.104;8.074;2022-10-18T06:59:11;98103.81;;;14.25;100.00
74708;BME280;63360;50.104;8.074;2022-10-18T07:01:38;98105.66;;;14.25;100.00
74708;BME280;63360;50.104;8.074;2022-10-18T07:04:04;98120.13;;;14.31;100.00
74708;BME280;63360;50.104;8.074;2022-10-18T07:06:31;98120.13;;;14.31;100.00
74708;BME280;63360;50.104;8.074;2022-10-18T07:08:57;98126.19;;;14.31;100.00
74708;BME280;63360;50.104;8.074;2022-10-18T07:11:25;98121.81;;;14.27;100.00
74708;BME280;63360;50.104;8.074;2022-10-18T07:13:53;98116.47;;;14.32;100.00
74708;BME280;63360;50.104;8.074;2022-10-18T07:16:20;98120.78;;;14.36;100.00
74708;BME280;63360;50.104;8.074;2022-10-18T07:18:49;98130.34;;;14.41;100.00
74708;BME280;63360;50.104;8.074;2022-10-18T07:21:21;98124.03;;;14.42;100.00
74708;BME280;63360;50.104;8.074;2022-10-18T07:23:48;98122.03;;;14.39;100.00
74708;BME280;63360;50.104;8.074;2022-10-18T07:26:20;98132.66;;;14.51;100.00
74708;BME280;63360;50.104;8.074;2022-10-18T07:28:50;98121.09;;;14.43;100.00
74708;BME280;63360;50.104;8.074;2022-10-18T07:31:17;98128.03;;;14.48;100.00
74708;BME280;63360;50.104;8.074;2022-10-18T07:33:43;98139.91;;;14.54;100.00
74708;BME280;63360;50.104;8.074;2022-10-18T07:36:11;98136.06;;;14.60;100.00
74708;BME280;63360;50.104;8.074;2022-10-18T07:38:38;98133.91;;;14.53;100.00
74708;BME280;63360;50.104;8.074;2022-10-18T07:41:06;98141.31;;;14.60;100.00
74708;BME280;63360;50.104;8.074;2022-10-18T07:43:34;98129.13;;;14.64;100.00
74708;BME280;63360;50.104;8.074;2022-10-18T07:46:03;98135.00;;;14.70;100.00
74708;BME280;63360;50.104;8.074;2022-10-18T07:48:29;98139.16;;;14.62;100.00
74708;BME280;63360;50.104;8.074;2022-10-18T07:51:00;98147.78;;;14.71;100.00
74708;BME280;63360;50.104;8.074;2022-10-18T07:53:27;98141.47;;;14.64;100.00
74708;BME280;63360;50.104;8.074;2022-10-18T07:56:01;98135.47;;;14.63;100.00
74708;BME280;63360;50.104;8.074;2022-10-18T07:58:33;98147.47;;;14.73;100.00
74708;BME280;63360;50.104;8.074;2022-10-18T08:01:01;98141.94;;;14.66;100.00
74708;BME280;63360;50.104;8.074;2022-10-18T08:03:28;98140.22;;;14.70;100.00
74708;BME280;63360;50.104;8.074;2022-10-18T08:05:54;98153.66;;;14.77;100.00
74708;BME280;63360;50.104;8.074;2022-10-18T08:08:21;98153.94;;;14.75;100.00
74708;BME280;63360;50.104;8.074;2022-10-18T08:10:48;98160.75;;;15.02;100.00
74708;BME280;63360;50.104;8.074;2022-10-18T08:13:15;98161.22;;;14.95;100.00
74708;BME280;63360;50.104;8.074;2022-10-18T08:15:42;98153.97;;;14.84;100.00
74708;BME280;63360;50.104;8.074;2022-10-18T08:18:09;98165.06;;;14.89;100.00
74708;BME280;63360;50.104;8.074;2022-10-18T08:20:36;98171.06;;;14.90;100.00
74708;BME280;63360;50.104;8.074;2022-10-18T08:23:03;98180.75;;;15.06;100.00
74708;BME280;63360;50.104;8.074;2022-10-18T08:25:30;98167.06;;;14.92;100.00
74708;BME280;63360;50.104;8.074;2022-10-18T08:27:57;98162.13;;;14.82;100.00
74708;BME280;63360;50.104;8.074;2022-10-18T08:30:24;98178.00;;;14.86;100.00
74708;BME280;63360;50.104;8.074;2022-10-18T08:32:50;98186.78;;;14.90;100.00
74708;BME280;63360;50.104;8.074;2022-10-18T08:35:17;98168.28;;;14.78;100.00
74708;BME280;63360;50.104;8.074;2022-10-18T08:37:43;98179.06;;;14.93;100.00
74708;BME280;63360;50.104;8.074;2022-10-18T08:40:14;98190.16;;;14.99;100.00
74708;BME280;63360;50.104;8.074;2022-10-18T08:45:35;98190.63;;;15.01;100.00
74708;BME280;63360;50.104;8.074;2022-10-18T08:48:16;98197.91;;;14.95;100.00
74708;BME280;63360;50.104;8.074;2022-10-18T08:50:45;98192.78;;;14.90;100.00
74708;BME280;63360;50.104;8.074;2022-10-18T08:53:44;98202.97;;;15.09;100.00
74708;BME280;63360;50.104;8.074;2022-10-18T08:56:15;98197.91;;;14.95;100.00
74708;BME280;63360;50.104;8.074;2022-10-18T08:58:46;98198.78;;;14.91;100.00
74708;BME280;63360;50.104;8.074;2022-10-18T09:22:58;98193.41;;;14.96;100.00
74708;BME280;63360;50.104;8.074;2022-10-18T09:25:35;98186.66;;;15.03;100.00
74708;BME280;63360;50.104;8.074;2022-10-18T09:28:15;98184.16;;;15.15;100.00
74708;BME280;63360;50.104;8.074;2022-10-18T09:30:54;98183.22;;;15.20;100.00
74708;BME280;63360;50.104;8.074;2022-10-18T09:36:21;98183.56;;;15.10;100.00
74708;BME280;63360;50.104;8.074;2022-10-18T09:38:52;98202.03;;;15.39;100.00
74708;BME280;63360;50.104;8.074;2022-10-18T09:41:44;98201.75;;;15.32;100.00
74708;BME280;63360;50.104;8.074;2022-10-18T09:44:25;98204.50;;;15.36;100.00
74708;BME280;63360;50.104;8.074;2022-10-18T09:47:02;98199.75;;;15.29;100.00
74708;BME280;63360;50.104;8.074;2022-10-18T09:49:36;98202.81;;;15.40;100.00
74708;BME280;63360;50.104;8.074;2022-10-18T09:52:10;98186.63;;;15.29;100.00
74708;BME280;63360;50.104;8.074;2022-10-18T09:54:46;98196.34;;;15.37;100.00
74708;BME280;63360;50.104;8.074;2022-10-18T10:00:04;98186.91;;;15.45;100.00
74708;BME280;63360;50.104;8.074;2022-10-18T10:02:32;98203.75;;;15.52;100.00
74708;BME280;63360;50.104;8.074;2022-10-18T10:04:58;98201.72;;;15.58;100.00
74708;BME280;63360;50.104;8.074;2022-10-18T10:07:27;98207.16;;;15.53;100.00
74708;BME280;63360;50.104;8.074;2022-10-18T10:10:04;98218.25;;;15.58;100.00
74708;BME280;63360;50.104;8.074;2022-10-18T10:12:34;98212.84;;;15.55;100.00
74708;BME280;63360;50.104;8.074;2022-10-18T10:15:21;98234.25;;;15.74;100.00
74708;BME280;63360;50.104;8.074;2022-10-18T10:20:41;98230.09;;;15.73;100.00
74708;BME280;63360;50.104;8.074;2022-10-18T10:23:14;98218.84;;;15.64;100.00
74708;BME280;63360;50.104;8.074;2022-10-18T10:25:51;98229.34;;;15.72;100.00
74708;BME280;63360;50.104;8.074;2022-10-18T10:28:21;98228.41;;;15.60;100.00
74708;BME280;63360;50.104;8.074;2022-10-18T10:30:49;98238.72;;;15.65;100.00
74708;BME280;63360;50.104;8.074;2022-10-18T10:33:34;98236.09;;;15.73;100.00
74708;BME280;63360;50.104;8.074;2022-10-18T10:36:04;98221.94;;;15.66;100.00
74708;BME280;63360;50.104;8.074;2022-10-18T10:38:32;98227.47;;;15.73;100.00
74708;BME280;63360;50.104;8.074;2022-10-18T10:40:58;98214.22;;;15.69;100.00
74708;BME280;63360;50.104;8.074;2022-10-18T10:43:33;98235.16;;;15.87;100.00
74708;BME280;63360;50.104;8.074;2022-10-18T10:51:35;98243.63;;;15.84;100.00
74708;BME280;63360;50.104;8.074;2022-10-18T10:54:15;98246.84;;;16.06;100.00
74708;BME280;63360;50.104;8.074;2022-10-18T10:56:50;98253.00;;;16.10;100.00
74708;BME280;63360;50.104;8.074;2022-10-18T10:59:19;98245.63;;;16.04;100.00
74708;BME280;63360;50.104;8.074;2022-10-18T11:01:47;98234.19;;;16.00;100.00
74708;BME280;63360;50.104;8.074;2022-10-18T11:04:27;98244.38;;;16.01;100.00
74708;BME280;63360;50.104;8.074;2022-10-18T11:07:04;98248.06;;;16.09;100.00
74708;BME280;63360;50.104;8.074;2022-10-18T11:12:23;98230.59;;;16.13;100.00
74708;BME280;63360;50.104;8.074;2022-10-18T11:14:58;98230.22;;;15.94;100.00
74708;BME280;63360;50.104;8.074;2022-10-18T11:17:34;98244.41;;;15.93;100.00
74708;BME280;63360;50.104;8.074;2022-10-18T11:22:32;98227.59;;;15.85;100.00
74708;BME280;63360;50.104;8.074;2022-10-18T11:25:03;98232.22;;;15.88;100.00
74708;BME280;63360;50.104;8.074;2022-10-18T11:27:35;98239.63;;;15.86;100.00
74708;BME280;63360;50.104;8.074;2022-10-18T11:33:29;98241.34;;;15.91;100.00
74708;BME280;63360;50.104;8.074;2022-10-18T11:36:25;98237.94;;;15.90;100.00
74708;BME280;63360;50.104;8.074;2022-10-18T11:44:02;98240.13;;;15.71;100.00
74708;BME280;63360;50.104;8.074;2022-10-18T11:49:30;98237.59;;;15.92;100.00
74708;BME280;63360;50.104;8.074;2022-10-18T11:52:18;98240.38;;;16.04;100.00
74708;BME280;63360;50.104;8.074;2022-10-18T11:55:13;98233.50;;;16.28;100.00
74708;BME280;63360;50.104;8.074;2022-10-18T12:03:24;98243.88;;;16.08;100.00
74708;BME280;63360;50.104;8.074;2022-10-18T12:05:55;98236.16;;;16.11;100.00
74708;BME280;63360;50.104;8.074;2022-10-18T12:10:50;98223.88;;;15.86;100.00
74708;BME280;63360;50.104;8.074;2022-10-18T12:13:42;98222.69;;;15.75;100.00
74708;BME280;63360;50.104;8.074;2022-10-18T12:16:09;98232.25;;;15.80;100.00
74708;BME280;63360;50.104;8.074;2022-10-18T12:18:48;98221.16;;;15.65;100.00
74708;BME280;63360;50.104;8.074;2022-10-18T12:21:22;98229.63;;;15.71;100.00
74708;BME280;63360;50.104;8.074;2022-10-18T12:26:44;98212.84;;;15.55;100.00
74708;BME280;63360;50.104;8.074;2022-10-18T12:31:55;98208.38;;;15.55;100.00
74708;BME280;63360;50.104;8.074;2022-10-18T12:34:42;98207.59;;;15.55;100.00
74708;BME280;63360;50.104;8.074;2022-10-18T12:37:32;98224.22;;;15.67;100.00
74708;BME280;63360;50.104;8.074;2022-10-18T12:40:15;98217.63;;;15.70;100.00
74708;BME280;63360;50.104;8.074;2022-10-18T12:42:48;98215.75;;;15.70;100.00
74708;BME280;63360;50.104;8.074;2022-10-18T12:45:23;98215.75;;;15.70;100.00
74708;BME280;63360;50.104;8.074;2022-10-18T12:47:50;98218.31;;;15.96;100.00
74708;BME280;63360;50.104;8.074;2022-10-18T12:50:29;98209.41;;;15.89;100.00
74708;BME280;63360;50.104;8.074;2022-10-18T12:55:37;98213.25;;;15.91;100.00
74708;BME280;63360;50.104;8.074;2022-10-18T12:58:20;98219.38;;;15.95;100.00
74708;BME280;63360;50.104;8.074;2022-10-18T13:22:55;98222.50;;;16.26;100.00
74708;BME280;63360;50.104;8.074;2022-10-18T13:33:54;98209.41;;;15.89;100.00
74708;BME280;63360;50.104;8.074;2022-10-18T13:36:22;98221.59;;;15.85;100.00
74708;BME280;63360;50.104;8.074;2022-10-18T13:44:27;98216.06;;;15.69;100.00
74708;BME280;63360;50.104;8.074;2022-10-18T14:06:25;98241.22;;;15.70;100.00
74708;BME280;63360;50.104;8.074;2022-10-18T14:09:11;98231.19;;;15.63;100.00
74708;BME280;63360;50.104;8.074;2022-10-18T14:15:01;98236.13;;;15.65;100.00
74708;BME280;63360;50.104;8.074;2022-10-18T14:17:40;98232.91;;;15.59;100.00
74708;BME280;63360;50.104;8.074;2022-10-18T14:20:29;98229.47;;;15.67;100.00
74708;BME280;63360;50.104;8.074;2022-10-18T14:23:42;98247.38;;;15.65;100.00
74708;BME280;63360;50.104;8.074;2022-10-18T14:26:15;98242.28;;;15.77;100.00
74708;BME280;63360;50.104;8.074;2022-10-18T14:28:42;98245.84;;;15.64;100.00
74708;BME280;63360;50.104;8.074;2022-10-18T14:31:26;98246.16;;;15.63;100.00
74708;BME280;63360;50.104;8.074;2022-10-18T14:33:54;98249.88;;;15.62;100.00
74708;BME280;63360;50.104;8.074;2022-10-18T14:36:25;98244.75;;;15.74;100.00
74708;BME280;63360;50.104;8.074;2022-10-18T14:38:58;98257.53;;;15.75;100.00
74708;BME280;63360;50.104;8.074;2022-10-18T14:41:28;98260.81;;;15.72;100.00
74708;BME280;63360;50.104;8.074;2022-10-18T14:44:29;98255.56;;;15.64;100.00
74708;BME280;63360;50.104;8.074;2022-10-18T14:47:01;98246.63;;;15.48;100.00
74708;BME280;63360;50.104;8.074;2022-10-18T14:49:29;98247.22;;;15.45;100.00
74708;BME280;63360;50.104;8.074;2022-10-18T14:51:57;98239.34;;;15.36;100.00
74708;BME280;63360;50.104;8.074;2022-10-18T14:54:32;98252.34;;;15.50;100.00
74708;BME280;63360;50.104;8.074;2022-10-18T14:57:02;98240.63;;;15.64;100.00
74708;BME280;63360;50.104;8.074;2022-10-18T14:59:33;98242.63;;;15.59;100.00
74708;BME280;63360;50.104;8.074;2022-10-18T15:02:15;98255.28;;;15.48;100.00
74708;BME280;63360;50.104;8.074;2022-10-18T15:04:44;98252.34;;;15.58;100.00
74708;BME280;63360;50.104;8.074;2022-10-18T15:07:15;98253.44;;;15.49;100.00
74708;BME280;63360;50.104;8.074;2022-10-18T15:09:43;98250.16;;;15.43;100.00
74708;BME280;63360;50.104;8.074;2022-10-18T15:12:12;98247.84;;;15.33;100.00
74708;BME280;63360;50.104;8.074;2022-10-18T15:14:40;98252.47;;;15.36;100.00
74708;BME280;63360;50.104;8.074;2022-10-18T15:17:13;98256.63;;;15.37;100.00
74708;BME280;63360;50.104;8.074;2022-10-18T15:19:52;98263.59;;;15.50;100.00
74708;BME280;63360;50.104;8.074;2022-10-18T15:22:26;98252.34;;;15.50;100.00
74708;BME280;63360;50.104;8.074;2022-10-18T15:27:48;98252.03;;;15.51;100.00
74708;BME280;63360;50.104;8.074;2022-10-18T15:30:37;98266.34;;;15.45;100.00
74708;BME280;63360;50.104;8.074;2022-10-18T15:33:06;98263.91;;;15.57;100.00
74708;BME280;63360;50.104;8.074;2022-10-18T15:35:37;98257.13;;;15.56;100.00
74708;BME280;63360;50.104;8.074;2022-10-18T15:38:15;98247.09;;;15.50;100.00
74708;BME280;63360;50.104;8.074;2022-10-18T15:40:42;98243.41;;;15.51;100.00